sensor_id;sensor_type;location;lat;lon;timestamp;P1;durP1;ratioP1;P2;durP2;ratioP2
75774;SDS011;64505;51.458;7.556;2023-11-21T00:00:46;10.85;;;5.00;;
75774;SDS011;64505;51.458;7.556;2023-11-21T00:02:47;12.45;;;4.88;;
75774;SDS011;64505;51.458;7.556;2023-11-21T00:04:50;12.35;;;4.63;;
75774;SDS011;64505;51.458;7.556;2023-11-21T00:06:51;8.88;;;4.63;;
75774;SDS011;64505;51.458;7.556;2023-11-21T00:08:53;12.82;;;5.85;;
75774;SDS011;64505;51.458;7.556;2023-11-21T00:10:54;9.57;;;4.88;;
75774;SDS011;64505;51.458;7.556;2023-11-21T00:12:56;10.20;;;4.72;;
75774;SDS011;64505;51.458;7.556;2023-11-21T00:14:57;9.82;;;4.78;;
75774;SDS011;64505;51.458;7.556;2023-11-21T00:16:59;13.63;;;5.35;;
75774;SDS011;64505;51.458;7.556;2023-11-21T00:19:00;15.38;;;5.70;;
75774;SDS011;64505;51.458;7.556;2023-11-21T00:21:02;10.93;;;5.10;;
75774;SDS011;64505;51.458;7.556;2023-11-21T00:23:04;12.52;;;5.10;;
75774;SDS011;64505;51.458;7.556;2023-11-21T00:25:06;14.18;;;5.97;;
75774;SDS011;64505;51.458;7.556;2023-11-21T00:27:10;14.35;;;5.55;;
75774;SDS011;64505;51.458;7.556;2023-11-21T00:29:11;12.90;;;5.93;;
75774;SDS011;64505;51.458;7.556;2023-11-21T00:31:13;13.13;;;5.50;;
75774;SDS011;64505;51.458;7.556;2023-11-21T00:33:15;14.90;;;6.03;;
75774;SDS011;64505;51.458;7.556;2023-11-21T00:35:16;14.65;;;5.50;;
75774;SDS011;64505;51.458;7.556;2023-11-21T00:37:18;13.35;;;5.53;;
75774;SDS011;64505;51.458;7.556;2023-11-21T00:39:19;9.95;;;5.38;;
75774;SDS011;64505;51.458;7.556;2023-11-21T00:41:20;10.60;;;5.07;;
75774;SDS011;64505;51.458;7.556;2023-11-21T00:43:22;13.27;;;6.40;;
75774;SDS011;64505;51.458;7.556;2023-11-21T00:45:24;14.73;;;5.85;;
75774;SDS011;64505;51.458;7.556;2023-11-21T00:47:27;13.32;;;5.97;;
75774;SDS011;64505;51.458;7.556;2023-11-21T00:49:28;14.27;;;6.78;;
75774;SDS011;64505;51.458;7.556;2023-11-21T00:51:30;12.05;;;5.75;;
75774;SDS011;64505;51.458;7.556;2023-11-21T00:53:32;13.98;;;5.63;;
75774;SDS011;64505;51.458;7.556;2023-11-21T00:55:33;12.32;;;5.80;;
75774;SDS011;64505;51.458;7.556;2023-11-21T00:57:36;12.27;;;5.45;;
75774;SDS011;64505;51.458;7.556;2023-11-21T00:59:38;12.38;;;5.32;;
75774;SDS011;64505;51.458;7.556;2023-11-21T01:01:40;12.68;;;6.03;;
75774;SDS011;64505;51.458;7.556;2023-11-21T01:03:41;13.63;;;5.55;;
75774;SDS011;64505;51.458;7.556;2023-11-21T01:05:43;12.23;;;5.63;;
75774;SDS011;64505;51.458;7.556;2023-11-21T01:07:45;11.40;;;5.93;;
75774;SDS011;64505;51.458;7.556;2023-11-21T01:09:46;11.73;;;6.05;;
75774;SDS011;64505;51.458;7.556;2023-11-21T01:11:48;11.50;;;5.78;;
75774;SDS011;64505;51.458;7.556;2023-11-21T01:13:49;12.80;;;6.07;;
75774;SDS011;64505;51.458;7.556;2023-11-21T01:15:51;17.95;;;5.90;;
75774;SDS011;64505;51.458;7.556;2023-11-21T01:17:52;11.88;;;6.03;;
75774;SDS011;64505;51.458;7.556;2023-11-21T01:19:54;10.55;;;5.43;;
75774;SDS011;64505;51.458;7.556;2023-11-21T01:21:57;14.10;;;6.38;;
75774;SDS011;64505;51.458;7.556;2023-11-21T01:23:59;13.07;;;5.97;;
75774;SDS011;64505;51.458;7.556;2023-11-21T01:26:00;11.27;;;5.20;;
75774;SDS011;64505;51.458;7.556;2023-11-21T01:28:02;11.70;;;6.22;;
75774;SDS011;64505;51.458;7.556;2023-11-21T01:30:03;12.07;;;6.95;;
75774;SDS011;64505;51.458;7.556;2023-11-21T01:32:05;15.20;;;6.95;;
75774;SDS011;64505;51.458;7.556;2023-11-21T01:34:09;15.68;;;6.78;;
75774;SDS011;64505;51.458;7.556;2023-11-21T01:36:11;12.05;;;6.32;;
75774;SDS011;64505;51.458;7.556;2023-11-21T01:38:12;14.65;;;6.57;;
75774;SDS011;64505;51.458;7.556;2023-11-21T01:40:14;19.33;;;6.93;;
75774;SDS011;64505;51.458;7.556;2023-11-21T01:42:16;16.40;;;6.93;;
75774;SDS011;64505;51.458;7.556;2023-11-21T01:44:17;16.65;;;7.63;;
75774;SDS011;64505;51.458;7.556;2023-11-21T01:46:20;14.73;;;7.00;;
75774;SDS011;64505;51.458;7.556;2023-11-21T01:48:23;10.30;;;6.85;;
75774;SDS011;64505;51.458;7.556;2023-11-21T01:50:26;14.10;;;6.75;;
75774;SDS011;64505;51.458;7.556;2023-11-21T01:52:28;15.52;;;6.53;;
75774;SDS011;64505;51.458;7.556;2023-11-21T01:54:29;17.27;;;7.50;;
75774;SDS011;64505;51.458;7.556;2023-11-21T01:56:32;15.18;;;7.00;;
75774;SDS011;64505;51.458;7.556;2023-11-21T01:58:35;12.38;;;6.55;;
75774;SDS011;64505;51.458;7.556;2023-11-21T02:00:37;11.45;;;6.95;;
75774;SDS011;64505;51.458;7.556;2023-11-21T02:02:39;13.68;;;6.38;;
75774;SDS011;64505;51.458;7.556;2023-11-21T02:04:41;14.52;;;6.85;;
75774;SDS011;64505;51.458;7.556;2023-11-21T02:06:43;12.02;;;6.50;;
75774;SDS011;64505;51.458;7.556;2023-11-21T02:08:44;12.25;;;6.75;;
75774;SDS011;64505;51.458;7.556;2023-11-21T02:10:45;17.85;;;6.68;;
75774;SDS011;64505;51.458;7.556;2023-11-21T02:12:49;13.63;;;6.65;;
75774;SDS011;64505;51.458;7.556;2023-11-21T02:14:53;12.32;;;6.20;;
75774;SDS011;64505;51.458;7.556;2023-11-21T02:16:56;13.88;;;6.85;;
75774;SDS011;64505;51.458;7.556;2023-11-21T02:18:58;13.88;;;7.07;;
75774;SDS011;64505;51.458;7.556;2023-11-21T02:21:00;18.88;;;6.97;;
75774;SDS011;64505;51.458;7.556;2023-11-21T02:23:04;11.82;;;6.38;;
75774;SDS011;64505;51.458;7.556;2023-11-21T02:25:06;11.88;;;6.28;;
75774;SDS011;64505;51.458;7.556;2023-11-21T02:27:08;19.98;;;6.65;;
75774;SDS011;64505;51.458;7.556;2023-11-21T02:29:10;15.43;;;7.18;;
75774;SDS011;64505;51.458;7.556;2023-11-21T02:31:13;15.10;;;6.47;;
75774;SDS011;64505;51.458;7.556;2023-11-21T02:33:15;13.40;;;6.47;;
75774;SDS011;64505;51.458;7.556;2023-11-21T02:35:16;12.93;;;6.43;;
75774;SDS011;64505;51.458;7.556;2023-11-21T02:37:18;13.55;;;6.50;;
75774;SDS011;64505;51.458;7.556;2023-11-21T02:39:19;11.60;;;6.03;;
75774;SDS011;64505;51.458;7.556;2023-11-21T02:41:23;14.73;;;6.28;;
75774;SDS011;64505;51.458;7.556;2023-11-21T02:43:25;13.40;;;6.32;;
75774;SDS011;64505;51.458;7.556;2023-11-21T02:45:26;13.32;;;6.22;;
75774;SDS011;64505;51.458;7.556;2023-11-21T02:47:28;11.15;;;6.03;;
75774;SDS011;64505;51.458;7.556;2023-11-21T02:49:31;11.77;;;6.00;;
75774;SDS011;64505;51.458;7.556;2023-11-21T02:51:37;14.45;;;6.45;;
75774;SDS011;64505;51.458;7.556;2023-11-21T02:53:41;14.18;;;6.65;;
75774;SDS011;64505;51.458;7.556;2023-11-21T02:55:42;14.65;;;6.20;;
75774;SDS011;64505;51.458;7.556;2023-11-21T02:57:44;13.18;;;6.75;;
75774;SDS011;64505;51.458;7.556;2023-11-21T02:59:45;13.43;;;6.68;;
75774;SDS011;64505;51.458;7.556;2023-11-21T03:01:47;13.50;;;7.18;;
75774;SDS011;64505;51.458;7.556;2023-11-21T03:03:50;13.18;;;7.40;;
75774;SDS011;64505;51.458;7.556;2023-11-21T03:05:52;15.57;;;7.03;;
75774;SDS011;64505;51.458;7.556;2023-11-21T03:07:54;19.35;;;7.43;;
75774;SDS011;64505;51.458;7.556;2023-11-21T03:09:56;16.85;;;7.50;;
75774;SDS011;64505;51.458;7.556;2023-11-21T03:11:57;17.88;;;7.22;;
75774;SDS011;64505;51.458;7.556;2023-11-21T03:13:59;20.50;;;7.65;;
75774;SDS011;64505;51.458;7.556;2023-11-21T03:16:00;15.63;;;7.93;;
75774;SDS011;64505;51.458;7.556;2023-11-21T03:18:02;17.52;;;7.97;;
75774;SDS011;64505;51.458;7.556;2023-11-21T03:20:04;23.23;;;8.02;;
75774;SDS011;64505;51.458;7.556;2023-11-21T03:22:07;15.88;;;7.05;;
75774;SDS011;64505;51.458;7.556;2023-11-21T03:24:09;15.73;;;8.10;;
75774;SDS011;64505;51.458;7.556;2023-11-21T03:26:13;20.48;;;8.50;;
75774;SDS011;64505;51.458;7.556;2023-11-21T03:28:15;19.38;;;8.95;;
75774;SDS011;64505;51.458;7.556;2023-11-21T03:30:17;24.85;;;9.52;;
75774;SDS011;64505;51.458;7.556;2023-11-21T03:32:18;21.67;;;9.02;;
75774;SDS011;64505;51.458;7.556;2023-11-21T03:34:24;18.95;;;8.32;;
75774;SDS011;64505;51.458;7.556;2023-11-21T03:36:29;16.48;;;8.55;;
75774;SDS011;64505;51.458;7.556;2023-11-21T03:38:30;15.90;;;8.30;;
75774;SDS011;64505;51.458;7.556;2023-11-21T03:40:32;16.92;;;8.02;;
75774;SDS011;64505;51.458;7.556;2023-11-21T03:42:34;21.40;;;8.75;;
75774;SDS011;64505;51.458;7.556;2023-11-21T03:44:35;19.83;;;8.88;;
75774;SDS011;64505;51.458;7.556;2023-11-21T03:46:37;20.13;;;9.30;;
75774;SDS011;64505;51.458;7.556;2023-11-21T03:48:38;21.05;;;7.97;;
75774;SDS011;64505;51.458;7.556;2023-11-21T03:50:40;20.60;;;9.20;;
75774;SDS011;64505;51.458;7.556;2023-11-21T03:52:41;22.10;;;8.55;;
75774;SDS011;64505;51.458;7.556;2023-11-21T03:54:43;19.38;;;9.07;;
75774;SDS011;64505;51.458;7.556;2023-11-21T03:56:45;15.60;;;8.55;;
75774;SDS011;64505;51.458;7.556;2023-11-21T03:58:47;16.73;;;7.65;;
75774;SDS011;64505;51.458;7.556;2023-11-21T04:00:50;17.02;;;8.65;;
75774;SDS011;64505;51.458;7.556;2023-11-21T04:02:51;20.65;;;8.60;;
75774;SDS011;64505;51.458;7.556;2023-11-21T04:04:53;17.25;;;8.10;;
75774;SDS011;64505;51.458;7.556;2023-11-21T04:06:54;21.80;;;8.55;;
75774;SDS011;64505;51.458;7.556;2023-11-21T04:08:56;19.58;;;7.95;;
75774;SDS011;64505;51.458;7.556;2023-11-21T04:10:57;15.32;;;7.70;;
75774;SDS011;64505;51.458;7.556;2023-11-21T04:12:59;19.48;;;8.25;;
75774;SDS011;64505;51.458;7.556;2023-11-21T04:15:02;16.10;;;8.55;;
75774;SDS011;64505;51.458;7.556;2023-11-21T04:17:04;18.00;;;8.10;;
75774;SDS011;64505;51.458;7.556;2023-11-21T04:19:06;18.98;;;8.68;;
75774;SDS011;64505;51.458;7.556;2023-11-21T04:21:07;15.70;;;8.18;;
75774;SDS011;64505;51.458;7.556;2023-11-21T04:23:09;18.88;;;8.55;;
75774;SDS011;64505;51.458;7.556;2023-11-21T04:25:12;18.75;;;9.38;;
75774;SDS011;64505;51.458;7.556;2023-11-21T04:27:15;19.15;;;9.35;;
75774;SDS011;64505;51.458;7.556;2023-11-21T04:29:19;16.50;;;8.25;;
75774;SDS011;64505;51.458;7.556;2023-11-21T04:31:20;21.73;;;8.40;;
75774;SDS011;64505;51.458;7.556;2023-11-21T04:33:22;18.75;;;9.20;;
75774;SDS011;64505;51.458;7.556;2023-11-21T04:35:23;23.60;;;8.63;;
75774;SDS011;64505;51.458;7.556;2023-11-21T04:37:25;18.73;;;8.95;;
75774;SDS011;64505;51.458;7.556;2023-11-21T04:39:26;21.25;;;9.80;;
75774;SDS011;64505;51.458;7.556;2023-11-21T04:41:28;17.10;;;8.88;;
75774;SDS011;64505;51.458;7.556;2023-11-21T04:43:29;15.32;;;8.05;;
75774;SDS011;64505;51.458;7.556;2023-11-21T04:45:31;18.50;;;9.25;;
75774;SDS011;64505;51.458;7.556;2023-11-21T04:47:33;19.27;;;9.05;;
75774;SDS011;64505;51.458;7.556;2023-11-21T04:49:35;17.33;;;8.60;;
75774;SDS011;64505;51.458;7.556;2023-11-21T04:51:36;18.92;;;8.35;;
75774;SDS011;64505;51.458;7.556;2023-11-21T04:53:38;20.45;;;8.80;;
75774;SDS011;64505;51.458;7.556;2023-11-21T04:55:40;15.90;;;7.75;;
75774;SDS011;64505;51.458;7.556;2023-11-21T04:57:42;18.38;;;8.20;;
75774;SDS011;64505;51.458;7.556;2023-11-21T04:59:44;21.70;;;8.35;;
75774;SDS011;64505;51.458;7.556;2023-11-21T05:01:45;16.90;;;8.20;;
75774;SDS011;64505;51.458;7.556;2023-11-21T05:03:47;20.20;;;8.35;;
75774;SDS011;64505;51.458;7.556;2023-11-21T05:05:50;17.73;;;8.82;;
75774;SDS011;64505;51.458;7.556;2023-11-21T05:07:51;17.15;;;7.63;;
75774;SDS011;64505;51.458;7.556;2023-11-21T05:09:54;18.13;;;9.02;;
75774;SDS011;64505;51.458;7.556;2023-11-21T05:11:56;17.58;;;8.68;;
75774;SDS011;64505;51.458;7.556;2023-11-21T05:13:58;18.98;;;9.02;;
75774;SDS011;64505;51.458;7.556;2023-11-21T05:16:02;17.73;;;8.30;;
75774;SDS011;64505;51.458;7.556;2023-11-21T05:18:05;18.73;;;9.05;;
75774;SDS011;64505;51.458;7.556;2023-11-21T05:20:07;17.40;;;8.50;;
75774;SDS011;64505;51.458;7.556;2023-11-21T05:22:11;16.40;;;8.45;;
75774;SDS011;64505;51.458;7.556;2023-11-21T05:24:13;19.77;;;8.55;;
75774;SDS011;64505;51.458;7.556;2023-11-21T05:26:14;21.75;;;9.25;;
75774;SDS011;64505;51.458;7.556;2023-11-21T05:28:16;18.15;;;8.98;;
75774;SDS011;64505;51.458;7.556;2023-11-21T05:30:17;19.02;;;9.18;;
75774;SDS011;64505;51.458;7.556;2023-11-21T05:32:19;17.13;;;8.60;;
75774;SDS011;64505;51.458;7.556;2023-11-21T05:34:20;20.02;;;9.20;;
75774;SDS011;64505;51.458;7.556;2023-11-21T05:36:25;24.70;;;10.35;;
75774;SDS011;64505;51.458;7.556;2023-11-21T05:38:26;18.70;;;9.68;;
75774;SDS011;64505;51.458;7.556;2023-11-21T05:40:27;20.23;;;9.00;;
75774;SDS011;64505;51.458;7.556;2023-11-21T05:42:34;23.13;;;9.88;;
75774;SDS011;64505;51.458;7.556;2023-11-21T05:44:40;19.15;;;8.85;;
75774;SDS011;64505;51.458;7.556;2023-11-21T05:46:42;22.55;;;10.75;;
75774;SDS011;64505;51.458;7.556;2023-11-21T05:48:44;19.52;;;9.63;;
75774;SDS011;64505;51.458;7.556;2023-11-21T05:50:46;21.50;;;9.68;;
75774;SDS011;64505;51.458;7.556;2023-11-21T05:52:49;23.50;;;9.45;;
75774;SDS011;64505;51.458;7.556;2023-11-21T05:54:51;17.23;;;8.85;;
75774;SDS011;64505;51.458;7.556;2023-11-21T05:56:52;20.42;;;8.63;;
75774;SDS011;64505;51.458;7.556;2023-11-21T05:58:54;21.98;;;8.77;;
75774;SDS011;64505;51.458;7.556;2023-11-21T06:00:55;21.60;;;9.10;;
75774;SDS011;64505;51.458;7.556;2023-11-21T06:02:57;19.25;;;8.43;;
75774;SDS011;64505;51.458;7.556;2023-11-21T06:04:58;18.95;;;8.65;;
75774;SDS011;64505;51.458;7.556;2023-11-21T06:07:00;18.85;;;9.73;;
75774;SDS011;64505;51.458;7.556;2023-11-21T06:09:02;19.05;;;9.02;;
75774;SDS011;64505;51.458;7.556;2023-11-21T06:11:04;21.20;;;9.30;;
75774;SDS011;64505;51.458;7.556;2023-11-21T06:13:06;18.33;;;8.70;;
75774;SDS011;64505;51.458;7.556;2023-11-21T06:15:09;17.92;;;8.35;;
75774;SDS011;64505;51.458;7.556;2023-11-21T06:17:14;22.85;;;8.98;;
75774;SDS011;64505;51.458;7.556;2023-11-21T06:19:16;18.30;;;9.02;;
75774;SDS011;64505;51.458;7.556;2023-11-21T06:21:18;19.25;;;9.45;;
75774;SDS011;64505;51.458;7.556;2023-11-21T06:23:19;19.55;;;8.63;;
75774;SDS011;64505;51.458;7.556;2023-11-21T06:25:21;17.50;;;8.70;;
75774;SDS011;64505;51.458;7.556;2023-11-21T06:27:23;19.35;;;9.57;;
75774;SDS011;64505;51.458;7.556;2023-11-21T06:29:26;19.65;;;8.60;;
75774;SDS011;64505;51.458;7.556;2023-11-21T06:31:29;21.35;;;9.25;;
75774;SDS011;64505;51.458;7.556;2023-11-21T06:33:31;22.60;;;10.05;;
75774;SDS011;64505;51.458;7.556;2023-11-21T06:35:33;17.63;;;8.48;;
75774;SDS011;64505;51.458;7.556;2023-11-21T06:37:36;19.10;;;8.73;;
75774;SDS011;64505;51.458;7.556;2023-11-21T06:39:37;22.20;;;9.55;;
75774;SDS011;64505;51.458;7.556;2023-11-21T06:41:39;16.05;;;8.15;;
75774;SDS011;64505;51.458;7.556;2023-11-21T06:43:41;23.98;;;8.90;;
75774;SDS011;64505;51.458;7.556;2023-11-21T06:45:42;19.33;;;8.60;;
75774;SDS011;64505;51.458;7.556;2023-11-21T06:47:45;20.60;;;8.32;;
75774;SDS011;64505;51.458;7.556;2023-11-21T06:49:47;19.55;;;9.25;;
75774;SDS011;64505;51.458;7.556;2023-11-21T06:51:51;18.30;;;8.68;;
75774;SDS011;64505;51.458;7.556;2023-11-21T06:53:54;17.25;;;8.23;;
75774;SDS011;64505;51.458;7.556;2023-11-21T06:55:55;19.35;;;9.68;;
75774;SDS011;64505;51.458;7.556;2023-11-21T06:57:57;17.13;;;8.27;;
75774;SDS011;64505;51.458;7.556;2023-11-21T06:59:59;19.58;;;8.50;;
75774;SDS011;64505;51.458;7.556;2023-11-21T07:02:01;20.38;;;8.88;;
75774;SDS011;64505;51.458;7.556;2023-11-21T07:04:02;19.58;;;8.93;;
75774;SDS011;64505;51.458;7.556;2023-11-21T07:06:04;19.80;;;8.57;;
75774;SDS011;64505;51.458;7.556;2023-11-21T07:08:06;19.52;;;7.97;;
75774;SDS011;64505;51.458;7.556;2023-11-21T07:10:09;19.40;;;8.27;;
75774;SDS011;64505;51.458;7.556;2023-11-21T07:12:10;17.08;;;7.65;;
75774;SDS011;64505;51.458;7.556;2023-11-21T07:14:12;21.70;;;9.35;;
75774;SDS011;64505;51.458;7.556;2023-11-21T07:16:13;19.77;;;8.80;;
75774;SDS011;64505;51.458;7.556;2023-11-21T07:18:16;23.35;;;10.00;;
75774;SDS011;64505;51.458;7.556;2023-11-21T07:20:17;21.48;;;9.07;;
75774;SDS011;64505;51.458;7.556;2023-11-21T07:22:19;21.52;;;9.45;;
75774;SDS011;64505;51.458;7.556;2023-11-21T07:24:22;26.23;;;12.32;;
75774;SDS011;64505;51.458;7.556;2023-11-21T07:26:27;24.52;;;10.40;;
75774;SDS011;64505;51.458;7.556;2023-11-21T07:28:29;27.00;;;9.90;;
75774;SDS011;64505;51.458;7.556;2023-11-21T07:30:31;20.98;;;9.90;;
75774;SDS011;64505;51.458;7.556;2023-11-21T07:32:33;26.88;;;10.25;;
75774;SDS011;64505;51.458;7.556;2023-11-21T07:34:35;24.98;;;9.70;;
75774;SDS011;64505;51.458;7.556;2023-11-21T07:36:37;21.85;;;9.02;;
75774;SDS011;64505;51.458;7.556;2023-11-21T07:38:39;26.92;;;9.35;;
75774;SDS011;64505;51.458;7.556;2023-11-21T07:40:41;21.45;;;10.55;;
75774;SDS011;64505;51.458;7.556;2023-11-21T07:42:42;22.40;;;10.30;;
75774;SDS011;64505;51.458;7.556;2023-11-21T07:44:44;21.92;;;9.48;;
75774;SDS011;64505;51.458;7.556;2023-11-21T07:46:48;23.35;;;10.05;;
75774;SDS011;64505;51.458;7.556;2023-11-21T07:48:51;24.83;;;10.95;;
75774;SDS011;64505;51.458;7.556;2023-11-21T07:50:54;21.25;;;10.80;;
75774;SDS011;64505;51.458;7.556;2023-11-21T07:52:57;25.63;;;10.52;;
75774;SDS011;64505;51.458;7.556;2023-11-21T07:54:59;23.38;;;10.55;;
75774;SDS011;64505;51.458;7.556;2023-11-21T07:57:00;23.33;;;10.70;;
75774;SDS011;64505;51.458;7.556;2023-11-21T07:59:02;27.98;;;11.23;;
75774;SDS011;64505;51.458;7.556;2023-11-21T08:01:03;22.23;;;10.48;;
75774;SDS011;64505;51.458;7.556;2023-11-21T08:03:05;26.65;;;10.55;;
75774;SDS011;64505;51.458;7.556;2023-11-21T08:05:07;22.58;;;10.40;;
75774;SDS011;64505;51.458;7.556;2023-11-21T08:07:16;22.23;;;10.02;;
75774;SDS011;64505;51.458;7.556;2023-11-21T08:09:18;24.38;;;11.73;;
75774;SDS011;64505;51.458;7.556;2023-11-21T08:11:20;22.13;;;11.65;;
75774;SDS011;64505;51.458;7.556;2023-11-21T08:13:24;32.38;;;12.32;;
75774;SDS011;64505;51.458;7.556;2023-11-21T08:15:26;25.35;;;11.88;;
75774;SDS011;64505;51.458;7.556;2023-11-21T08:17:28;23.10;;;11.38;;
75774;SDS011;64505;51.458;7.556;2023-11-21T08:19:30;27.50;;;11.65;;
75774;SDS011;64505;51.458;7.556;2023-11-21T08:21:32;25.20;;;11.63;;
75774;SDS011;64505;51.458;7.556;2023-11-21T08:23:34;23.05;;;10.45;;
75774;SDS011;64505;51.458;7.556;2023-11-21T08:25:35;24.65;;;11.55;;
75774;SDS011;64505;51.458;7.556;2023-11-21T08:27:37;24.90;;;10.93;;
75774;SDS011;64505;51.458;7.556;2023-11-21T08:29:40;33.35;;;12.18;;
75774;SDS011;64505;51.458;7.556;2023-11-21T08:31:41;23.20;;;11.07;;
75774;SDS011;64505;51.458;7.556;2023-11-21T08:33:42;27.65;;;11.73;;
75774;SDS011;64505;51.458;7.556;2023-11-21T08:35:44;25.27;;;11.00;;
75774;SDS011;64505;51.458;7.556;2023-11-21T08:37:47;25.60;;;11.43;;
75774;SDS011;64505;51.458;7.556;2023-11-21T08:39:48;28.25;;;11.23;;
75774;SDS011;64505;51.458;7.556;2023-11-21T08:41:50;23.33;;;11.48;;
75774;SDS011;64505;51.458;7.556;2023-11-21T08:43:52;26.38;;;11.73;;
75774;SDS011;64505;51.458;7.556;2023-11-21T08:45:55;30.52;;;11.73;;
75774;SDS011;64505;51.458;7.556;2023-11-21T08:47:56;31.63;;;12.30;;
75774;SDS011;64505;51.458;7.556;2023-11-21T08:49:58;31.05;;;12.68;;
75774;SDS011;64505;51.458;7.556;2023-11-21T08:52:00;34.50;;;12.85;;
75774;SDS011;64505;51.458;7.556;2023-11-21T08:54:02;28.77;;;11.65;;
75774;SDS011;64505;51.458;7.556;2023-11-21T08:56:06;30.00;;;13.90;;
75774;SDS011;64505;51.458;7.556;2023-11-21T08:58:08;30.13;;;12.00;;
75774;SDS011;64505;51.458;7.556;2023-11-21T09:00:10;38.40;;;14.38;;
75774;SDS011;64505;51.458;7.556;2023-11-21T09:02:17;33.30;;;13.52;;
75774;SDS011;64505;51.458;7.556;2023-11-21T09:04:18;38.85;;;14.13;;
75774;SDS011;64505;51.458;7.556;2023-11-21T09:06:20;34.55;;;13.93;;
75774;SDS011;64505;51.458;7.556;2023-11-21T09:08:21;41.67;;;16.10;;
75774;SDS011;64505;51.458;7.556;2023-11-21T09:10:23;41.40;;;16.02;;
75774;SDS011;64505;51.458;7.556;2023-11-21T09:12:27;34.33;;;13.77;;
75774;SDS011;64505;51.458;7.556;2023-11-21T09:14:28;47.53;;;15.77;;
75774;SDS011;64505;51.458;7.556;2023-11-21T09:16:29;39.95;;;15.15;;
75774;SDS011;64505;51.458;7.556;2023-11-21T09:18:31;48.35;;;15.23;;
75774;SDS011;64505;51.458;7.556;2023-11-21T09:20:33;38.42;;;14.73;;
75774;SDS011;64505;51.458;7.556;2023-11-21T09:22:34;44.72;;;16.20;;
75774;SDS011;64505;51.458;7.556;2023-11-21T09:24:36;41.97;;;15.05;;
75774;SDS011;64505;51.458;7.556;2023-11-21T09:26:40;44.25;;;15.77;;
75774;SDS011;64505;51.458;7.556;2023-11-21T09:28:45;42.05;;;13.95;;
75774;SDS011;64505;51.458;7.556;2023-11-21T09:30:48;40.42;;;15.10;;
75774;SDS011;64505;51.458;7.556;2023-11-21T09:32:51;40.13;;;14.55;;
75774;SDS011;64505;51.458;7.556;2023-11-21T09:34:52;39.83;;;15.48;;
75774;SDS011;64505;51.458;7.556;2023-11-21T09:36:56;41.72;;;14.68;;
75774;SDS011;64505;51.458;7.556;2023-11-21T09:38:58;38.38;;;14.70;;
75774;SDS011;64505;51.458;7.556;2023-11-21T09:40:59;42.88;;;14.18;;
75774;SDS011;64505;51.458;7.556;2023-11-21T09:43:15;38.65;;;14.90;;
75774;SDS011;64505;51.458;7.556;2023-11-21T09:45:23;42.28;;;15.88;;
75774;SDS011;64505;51.458;7.556;2023-11-21T09:47:27;42.42;;;14.95;;
75774;SDS011;64505;51.458;7.556;2023-11-21T09:49:29;39.92;;;14.05;;
75774;SDS011;64505;51.458;7.556;2023-11-21T09:51:35;49.72;;;15.38;;
75774;SDS011;64505;51.458;7.556;2023-11-21T09:53:40;48.50;;;15.00;;
75774;SDS011;64505;51.458;7.556;2023-11-21T09:55:46;44.45;;;14.90;;
75774;SDS011;64505;51.458;7.556;2023-11-21T09:57:51;47.42;;;13.80;;
75774;SDS011;64505;51.458;7.556;2023-11-21T09:59:54;50.33;;;16.08;;
75774;SDS011;64505;51.458;7.556;2023-11-21T10:02:00;43.63;;;15.90;;
75774;SDS011;64505;51.458;7.556;2023-11-21T10:04:03;41.78;;;15.65;;
75774;SDS011;64505;51.458;7.556;2023-11-21T10:06:07;39.65;;;14.80;;
75774;SDS011;64505;51.458;7.556;2023-11-21T10:08:10;39.42;;;14.38;;
75774;SDS011;64505;51.458;7.556;2023-11-21T10:10:13;42.42;;;15.02;;
75774;SDS011;64505;51.458;7.556;2023-11-21T10:12:17;46.20;;;15.15;;
75774;SDS011;64505;51.458;7.556;2023-11-21T10:14:21;45.67;;;15.57;;
75774;SDS011;64505;51.458;7.556;2023-11-21T10:16:26;58.42;;;16.95;;
75774;SDS011;64505;51.458;7.556;2023-11-21T10:18:29;51.38;;;16.98;;
75774;SDS011;64505;51.458;7.556;2023-11-21T10:20:31;49.78;;;16.05;;
75774;SDS011;64505;51.458;7.556;2023-11-21T10:22:34;41.63;;;15.45;;
75774;SDS011;64505;51.458;7.556;2023-11-21T10:24:36;40.38;;;15.82;;
75774;SDS011;64505;51.458;7.556;2023-11-21T10:26:52;43.45;;;15.82;;
75774;SDS011;64505;51.458;7.556;2023-11-21T10:28:58;40.65;;;14.63;;
75774;SDS011;64505;51.458;7.556;2023-11-21T10:31:00;43.35;;;15.95;;
75774;SDS011;64505;51.458;7.556;2023-11-21T10:33:02;42.65;;;16.15;;
75774;SDS011;64505;51.458;7.556;2023-11-21T10:35:07;40.30;;;15.15;;
75774;SDS011;64505;51.458;7.556;2023-11-21T10:37:12;39.45;;;15.35;;
75774;SDS011;64505;51.458;7.556;2023-11-21T10:39:17;42.65;;;16.48;;
75774;SDS011;64505;51.458;7.556;2023-11-21T10:41:20;33.33;;;13.60;;
75774;SDS011;64505;51.458;7.556;2023-11-21T10:43:25;37.03;;;14.55;;
75774;SDS011;64505;51.458;7.556;2023-11-21T10:45:28;40.70;;;15.05;;
75774;SDS011;64505;51.458;7.556;2023-11-21T10:47:30;40.55;;;16.50;;
75774;SDS011;64505;51.458;7.556;2023-11-21T10:49:32;51.35;;;16.00;;
75774;SDS011;64505;51.458;7.556;2023-11-21T10:51:33;40.15;;;15.38;;
75774;SDS011;64505;51.458;7.556;2023-11-21T10:53:38;34.22;;;14.68;;
75774;SDS011;64505;51.458;7.556;2023-11-21T10:55:45;43.42;;;15.10;;
75774;SDS011;64505;51.458;7.556;2023-11-21T10:57:48;44.13;;;15.73;;
75774;SDS011;64505;51.458;7.556;2023-11-21T10:59:50;43.40;;;15.45;;
75774;SDS011;64505;51.458;7.556;2023-11-21T11:01:53;36.00;;;14.38;;
75774;SDS011;64505;51.458;7.556;2023-11-21T11:03:56;41.88;;;14.65;;
75774;SDS011;64505;51.458;7.556;2023-11-21T11:05:59;47.47;;;16.27;;
75774;SDS011;64505;51.458;7.556;2023-11-21T11:08:05;42.30;;;14.52;;
75774;SDS011;64505;51.458;7.556;2023-11-21T11:10:09;39.22;;;14.23;;
75774;SDS011;64505;51.458;7.556;2023-11-21T11:12:15;44.17;;;15.88;;
75774;SDS011;64505;51.458;7.556;2023-11-21T11:14:18;41.78;;;14.32;;
75774;SDS011;64505;51.458;7.556;2023-11-21T11:16:20;36.83;;;14.73;;
75774;SDS011;64505;51.458;7.556;2023-11-21T11:18:23;37.83;;;14.57;;
75774;SDS011;64505;51.458;7.556;2023-11-21T11:20:31;41.05;;;15.43;;
75774;SDS011;64505;51.458;7.556;2023-11-21T11:29:56;41.60;;;15.60;;
75774;SDS011;64505;51.458;7.556;2023-11-21T11:32:58;41.58;;;15.27;;
75774;SDS011;64505;51.458;7.556;2023-11-21T11:34:55;38.13;;;15.98;;
75774;SDS011;64505;51.458;7.556;2023-11-21T11:37:08;41.15;;;15.65;;
75774;SDS011;64505;51.458;7.556;2023-11-21T11:39:29;39.03;;;15.52;;
75774;SDS011;64505;51.458;7.556;2023-11-21T11:41:43;42.92;;;15.55;;
75774;SDS011;64505;51.458;7.556;2023-11-21T11:43:44;41.53;;;17.50;;
75774;SDS011;64505;51.458;7.556;2023-11-21T11:45:46;41.58;;;17.73;;
75774;SDS011;64505;51.458;7.556;2023-11-21T11:47:56;45.40;;;18.02;;
75774;SDS011;64505;51.458;7.556;2023-11-21T11:50:05;47.72;;;18.77;;
75774;SDS011;64505;51.458;7.556;2023-11-21T11:52:34;44.45;;;18.20;;
75774;SDS011;64505;51.458;7.556;2023-11-21T11:54:43;38.38;;;15.32;;
75774;SDS011;64505;51.458;7.556;2023-11-21T11:56:45;35.67;;;15.82;;
75774;SDS011;64505;51.458;7.556;2023-11-21T11:58:48;34.38;;;15.35;;
75774;SDS011;64505;51.458;7.556;2023-11-21T12:00:51;37.88;;;14.85;;
75774;SDS011;64505;51.458;7.556;2023-11-21T12:02:55;31.77;;;14.05;;
75774;SDS011;64505;51.458;7.556;2023-11-21T12:04:58;34.80;;;13.98;;
75774;SDS011;64505;51.458;7.556;2023-11-21T12:07:00;31.58;;;13.85;;
75774;SDS011;64505;51.458;7.556;2023-11-21T12:09:05;30.17;;;13.23;;
75774;SDS011;64505;51.458;7.556;2023-11-21T12:11:07;34.80;;;15.38;;
75774;SDS011;64505;51.458;7.556;2023-11-21T12:13:09;35.15;;;13.43;;